Time;durP1;ratioP1;P1;durP2;ratioP2;P2;SDS_P1;SDS_P2;PMS_P1;PMS_P2;Temp;Humidity;BMP_temperature;BMP_pressure;BME280_temperature;BME280_humidity;BME280_pressure;Samples;Min_cycle;Max_cycle;Signal;HPM_P1;HPM_P2
2023/09/19 00:00:43;;;;;;;;;;;16.30;99.90;;;;;;5055848;28;19909;-78
2023/09/19 00:03:08;;;;;;;;;;;16.20;99.90;;;;;;5055694;28;19974;-79
2023/09/19 00:05:35;;;;;;;;;;;16.20;99.90;;;;;;5057403;28;19996;-79
2023/09/19 00:08:04;;;;;;;;;;;16.20;99.90;;;;;;5057051;28;19913;-79
2023/09/19 00:10:36;;;;;;;;;;;16.20;99.90;;;;;;5055906;28;19920;-79
2023/09/19 00:13:08;;;;;;;;;;;16.10;99.90;;;;;;5055428;28;19909;-78
2023/09/19 00:15:39;;;;;;;;;;;16.10;99.90;;;;;;5046430;28;19920;-79
2023/09/19 00:18:08;;;;;;;;;;;16.10;99.90;;;;;;5056920;28;19917;-79
2023/09/19 00:20:38;;;;;;;;;;;16.10;99.90;;;;;;5057249;28;20398;-79
2023/09/19 00:23:08;;;;;;;;;;;16.10;99.90;;;;;;5056688;28;19920;-79
2023/09/19 00:25:38;;;;;;;;;;;16.00;99.90;;;;;;5057135;28;19920;-79
2023/09/19 00:28:04;;;;;;;;;;;16.00;99.90;;;;;;5055207;28;20038;-79
2023/09/19 00:30:30;;;;;;;;;;;15.90;99.90;;;;;;5057045;28;19913;-79
2023/09/19 00:32:56;;;;;;;;;;;15.90;99.90;;;;;;5056707;28;20319;-79
2023/09/19 00:35:23;;;;;;;;;;;15.90;99.90;;;;;;5056656;28;19958;-79
2023/09/19 00:37:49;;;;;;;;;;;15.90;99.90;;;;;;5057155;28;19938;-78
2023/09/19 00:40:17;;;;;;;;;;;15.90;99.90;;;;;;5057236;28;19940;-79
2023/09/19 00:42:43;;;;;;;;;;;15.80;99.90;;;;;;5089306;28;19909;-79
2023/09/19 00:45:11;;;;;;;;;;;15.80;99.90;;;;;;5055611;28;19996;-79
2023/09/19 00:47:38;;;;;;;;;;;15.80;99.90;;;;;;5056630;28;20389;-78
2023/09/19 00:50:07;;;;;;;;;;;15.70;99.90;;;;;;5056643;28;19912;-79
2023/09/19 00:52:33;;;;;;;;;;;15.70;99.90;;;;;;5088530;28;19945;-79
2023/09/19 00:55:00;;;;;;;;;;;15.70;99.90;;;;;;5056623;28;19912;-79
2023/09/19 00:57:25;;;;;;;;;;;15.70;99.90;;;;;;5056138;28;19912;-79
2023/09/19 00:59:53;;;;;;;;;;;15.70;99.90;;;;;;5088597;28;19916;-78
2023/09/19 01:02:18;;;;;;;;;;;15.70;99.90;;;;;;5071697;28;19909;-78
2023/09/19 01:04:44;;;;;;;;;;;15.70;99.90;;;;;;5056093;28;19991;-79
2023/09/19 01:07:10;;;;;;;;;;;15.70;99.90;;;;;;5054594;28;19913;-78
2023/09/19 01:09:36;;;;;;;;;;;15.70;99.90;;;;;;5056177;28;19909;-79
2023/09/19 01:12:04;;;;;;;;;;;15.70;99.90;;;;;;5054323;28;19909;-79
2023/09/19 01:14:48;;;;;;;;;;;15.70;99.90;;;;;;5055596;28;19913;-79
2023/09/19 01:17:46;;;;;;;;;;;16.00;99.90;;;;;;5045430;28;19908;-79
2023/09/19 01:20:16;;;;;;;;;;;16.00;99.90;;;;;;5032782;28;19913;-79
2023/09/19 01:22:56;;;;;;;;;;;15.90;99.90;;;;;;5054018;28;19971;-79
2023/09/19 01:25:41;;;;;;;;;;;16.00;99.90;;;;;;5044712;28;19916;-78
2023/09/19 01:28:25;;;;;;;;;;;16.10;99.90;;;;;;5055483;28;20333;-79
2023/09/19 01:30:57;;;;;;;;;;;16.30;99.90;;;;;;5055687;28;20378;-80
2023/09/19 01:33:23;;;;;;;;;;;16.50;99.90;;;;;;5068035;28;20320;-80
2023/09/19 01:35:50;;;;;;;;;;;16.70;99.90;;;;;;5049951;28;20007;-80
2023/09/19 01:38:15;;;;;;;;;;;16.80;99.90;;;;;;5044100;28;19913;-79
2023/09/19 01:40:42;;;;;;;;;;;16.80;99.90;;;;;;5054207;28;19913;-79
2023/09/19 01:43:17;;;;;;;;;;;16.60;99.90;;;;;;5055769;28;19924;-79
2023/09/19 01:45:47;;;;;;;;;;;16.50;99.90;;;;;;5054372;28;19909;-79
2023/09/19 01:48:28;;;;;;;;;;;16.30;99.90;;;;;;5055930;28;19949;-79
2023/09/19 01:50:59;;;;;;;;;;;16.20;99.90;;;;;;5055646;28;19909;-79
2023/09/19 01:53:33;;;;;;;;;;;16.20;99.90;;;;;;5055995;28;19915;-79
2023/09/19 01:56:01;;;;;;;;;;;16.30;99.90;;;;;;5055176;28;19934;-79
2023/09/19 01:58:26;;;;;;;;;;;16.30;99.90;;;;;;5055593;28;19920;-80
2023/09/19 02:00:54;;;;;;;;;;;16.40;99.90;;;;;;5055605;28;19908;-79
2023/09/19 02:03:22;;;;;;;;;;;16.40;99.90;;;;;;5055194;28;20364;-79
2023/09/19 02:05:51;;;;;;;;;;;16.40;99.90;;;;;;5055261;28;20293;-79
2023/09/19 02:08:19;;;;;;;;;;;16.20;99.90;;;;;;5053834;28;19917;-79
2023/09/19 02:10:48;;;;;;;;;;;16.20;99.90;;;;;;5055790;28;20410;-78
2023/09/19 02:13:27;;;;;;;;;;;16.10;99.90;;;;;;5054200;28;19916;-79
2023/09/19 02:15:53;;;;;;;;;;;16.10;99.90;;;;;;5043369;28;19909;-78
2023/09/19 02:18:19;;;;;;;;;;;16.20;99.90;;;;;;5055524;28;19916;-78
2023/09/19 02:20:45;;;;;;;;;;;16.30;99.90;;;;;;5055195;28;19955;-78
2023/09/19 02:23:12;;;;;;;;;;;16.50;99.90;;;;;;5070811;28;19909;-79
2023/09/19 02:25:40;;;;;;;;;;;16.70;99.90;;;;;;5054500;28;19912;-80
2023/09/19 02:28:06;;;;;;;;;;;16.80;99.90;;;;;;5058710;28;19927;-79
2023/09/19 02:30:31;;;;;;;;;;;16.80;99.90;;;;;;5091376;28;20000;-79
2023/09/19 02:32:57;;;;;;;;;;;16.90;99.90;;;;;;5074224;28;19972;-80
2023/09/19 02:35:23;;;;;;;;;;;16.90;99.90;;;;;;5058940;28;19912;-79
2023/09/19 02:37:48;;;;;;;;;;;16.90;99.90;;;;;;5058767;28;20410;-79
2023/09/19 02:40:25;;;;;;;;;;;16.90;99.90;;;;;;5058641;28;19915;-79
2023/09/19 02:42:55;;;;;;;;;;;16.90;99.90;;;;;;5058697;28;19916;-80
2023/09/19 02:45:20;;;;;;;;;;;16.70;99.90;;;;;;5058683;28;19972;-79
2023/09/19 02:47:46;;;;;;;;;;;16.60;99.90;;;;;;5071017;28;20411;-80
2023/09/19 02:50:13;;;;;;;;;;;16.40;99.90;;;;;;5085494;28;20035;-80
2023/09/19 02:52:43;;;;;;;;;;;16.40;99.90;;;;;;5058774;28;20020;-79
2023/09/19 02:55:09;;;;;;;;;;;16.30;99.90;;;;;;5057361;28;19913;-79
2023/09/19 02:57:36;;;;;;;;;;;16.20;99.90;;;;;;5058976;28;19952;-79
2023/09/19 03:00:02;;;;;;;;;;;16.10;99.90;;;;;;5057305;28;19936;-79
2023/09/19 03:02:28;;;;;;;;;;;16.00;99.90;;;;;;5058355;28;19956;-79
2023/09/19 03:04:54;;;;;;;;;;;15.90;99.90;;;;;;5055804;28;20446;-79
2023/09/19 03:07:19;;;;;;;;;;;15.90;99.90;;;;;;5056138;28;19916;-78
2023/09/19 03:09:45;;;;;;;;;;;15.80;99.90;;;;;;5056751;28;20395;-79
2023/09/19 03:12:11;;;;;;;;;;;15.70;99.90;;;;;;5056873;28;19939;-80
2023/09/19 03:14:37;;;;;;;;;;;15.60;99.90;;;;;;5058159;28;19995;-79
2023/09/19 03:17:05;;;;;;;;;;;15.60;99.90;;;;;;5058247;28;19944;-79
2023/09/19 03:19:33;;;;;;;;;;;15.60;99.90;;;;;;5090390;28;19916;-78
2023/09/19 03:21:59;;;;;;;;;;;15.50;99.90;;;;;;5057793;28;19919;-79
2023/09/19 03:24:24;;;;;;;;;;;15.50;99.90;;;;;;5058055;28;19913;-79
2023/09/19 03:26:50;;;;;;;;;;;15.40;99.90;;;;;;5058206;28;20400;-79
2023/09/19 03:29:17;;;;;;;;;;;15.40;99.90;;;;;;5058259;28;20090;-79
2023/09/19 03:31:42;;;;;;;;;;;15.30;99.90;;;;;;5058520;28;19916;-78
2023/09/19 03:34:08;;;;;;;;;;;15.30;99.90;;;;;;5057766;28;19909;-78
2023/09/19 03:36:34;;;;;;;;;;;15.20;99.90;;;;;;5057362;28;19917;-79
2023/09/19 03:39:00;;;;;;;;;;;15.20;99.90;;;;;;5057666;28;19912;-79
2023/09/19 03:41:26;;;;;;;;;;;15.20;99.90;;;;;;5057947;28;19909;-79
2023/09/19 03:43:51;;;;;;;;;;;15.20;99.90;;;;;;5056134;28;20381;-79
2023/09/19 03:46:17;;;;;;;;;;;15.20;99.90;;;;;;5057826;28;19909;-79
2023/09/19 03:48:43;;;;;;;;;;;15.20;99.90;;;;;;5089492;28;20062;-78
2023/09/19 03:51:08;;;;;;;;;;;15.20;99.90;;;;;;5056047;28;20280;-79
2023/09/19 03:53:34;;;;;;;;;;;15.10;99.90;;;;;;5057714;28;19917;-78
2023/09/19 03:56:00;;;;;;;;;;;15.10;99.90;;;;;;5057755;28;19917;-79
2023/09/19 03:58:25;;;;;;;;;;;15.10;99.90;;;;;;5089605;28;19913;-78
2023/09/19 04:00:54;;;;;;;;;;;15.10;99.90;;;;;;5056251;28;19908;-79
2023/09/19 04:03:20;;;;;;;;;;;15.10;99.90;;;;;;5057609;28;19913;-79
2023/09/19 04:05:49;;;;;;;;;;;15.00;99.90;;;;;;5057312;28;19912;-79
2023/09/19 04:08:15;;;;;;;;;;;15.00;99.90;;;;;;5057447;28;20426;-80
2023/09/19 04:10:44;;;;;;;;;;;15.00;99.90;;;;;;5089486;28;19991;-80
2023/09/19 04:13:10;;;;;;;;;;;15.00;99.90;;;;;;5057128;28;19920;-79
2023/09/19 04:15:35;;;;;;;;;;;15.00;99.90;;;;;;5057196;28;19979;-78
2023/09/19 04:18:03;;;;;;;;;;;15.10;99.90;;;;;;5057183;28;19913;-77
2023/09/19 04:20:28;;;;;;;;;;;15.10;99.90;;;;;;5056979;28;19916;-79
2023/09/19 04:22:54;;;;;;;;;;;15.10;99.90;;;;;;5056469;28;19912;-79
2023/09/19 04:25:20;;;;;;;;;;;15.10;99.90;;;;;;5057382;28;19913;-78
2023/09/19 04:27:49;;;;;;;;;;;15.10;99.90;;;;;;5056488;28;19925;-79
2023/09/19 04:30:14;;;;;;;;;;;15.10;99.90;;;;;;5046515;28;19909;-79
2023/09/19 04:32:40;;;;;;;;;;;15.10;99.90;;;;;;5056677;28;20447;-78
2023/09/19 04:35:08;;;;;;;;;;;15.10;99.90;;;;;;5056738;28;20024;-78
2023/09/19 04:37:38;;;;;;;;;;;15.20;99.90;;;;;;5056542;28;19908;-79
2023/09/19 04:40:05;;;;;;;;;;;15.30;99.90;;;;;;5056622;28;19909;-78
2023/09/19 04:42:31;;;;;;;;;;;15.40;99.90;;;;;;5088655;28;20007;-79
2023/09/19 04:44:57;;;;;;;;;;;15.50;99.90;;;;;;5056516;28;19956;-79
2023/09/19 04:47:22;;;;;;;;;;;15.60;99.90;;;;;;5056494;28;19927;-78
2023/09/19 04:49:48;;;;;;;;;;;15.60;99.90;;;;;;5054162;28;19909;-78
2023/09/19 04:52:15;;;;;;;;;;;15.70;99.90;;;;;;5088333;28;20052;-78
2023/09/19 04:54:41;;;;;;;;;;;15.70;99.90;;;;;;5088813;28;19916;-78
2023/09/19 04:57:07;;;;;;;;;;;15.60;99.90;;;;;;5056310;28;19919;-78
2023/09/19 04:59:32;;;;;;;;;;;15.50;99.90;;;;;;5056359;28;20574;-78
2023/09/19 05:01:58;;;;;;;;;;;15.40;99.90;;;;;;5088004;28;20304;-78
2023/09/19 05:04:24;;;;;;;;;;;15.30;99.90;;;;;;5056255;28;19948;-78
2023/09/19 05:06:50;;;;;;;;;;;15.20;99.90;;;;;;5055820;28;19958;-78
2023/09/19 05:09:19;;;;;;;;;;;15.20;99.90;;;;;;5056086;28;19913;-78
2023/09/19 05:11:44;;;;;;;;;;;15.10;99.90;;;;;;5056120;28;19951;-79
2023/09/19 05:14:11;;;;;;;;;;;15.10;99.90;;;;;;5055396;28;19988;-79
2023/09/19 05:16:37;;;;;;;;;;;15.00;99.90;;;;;;5056443;28;19960;-78
2023/09/19 05:19:02;;;;;;;;;;;15.00;99.90;;;;;;5056363;28;19935;-78
2023/09/19 05:21:30;;;;;;;;;;;14.90;99.90;;;;;;5054982;28;19916;-78
2023/09/19 05:23:56;;;;;;;;;;;14.80;99.90;;;;;;5056316;28;19954;-78
2023/09/19 05:26:22;;;;;;;;;;;14.80;99.90;;;;;;5055915;28;19925;-78
2023/09/19 05:28:48;;;;;;;;;;;14.70;99.90;;;;;;5056365;28;19917;-78
2023/09/19 05:31:14;;;;;;;;;;;14.70;99.90;;;;;;5056138;28;19909;-77
2023/09/19 05:33:39;;;;;;;;;;;14.70;99.90;;;;;;5056153;28;20062;-78
2023/09/19 05:36:05;;;;;;;;;;;14.80;99.90;;;;;;5054494;28;19944;-77
2023/09/19 05:38:30;;;;;;;;;;;14.90;99.90;;;;;;5054515;28;20372;-78
2023/09/19 05:40:56;;;;;;;;;;;14.90;99.90;;;;;;5056053;28;19912;-78
2023/09/19 05:43:22;;;;;;;;;;;15.00;99.90;;;;;;5055743;28;19910;-78
2023/09/19 05:45:47;;;;;;;;;;;15.10;99.90;;;;;;5055997;28;19913;-78
2023/09/19 05:48:15;;;;;;;;;;;15.10;99.90;;;;;;5088004;28;20293;-77
2023/09/19 05:50:41;;;;;;;;;;;15.10;99.90;;;;;;5070848;28;19958;-77
2023/09/19 05:53:07;;;;;;;;;;;15.10;99.90;;;;;;5087601;28;19921;-77
2023/09/19 05:55:33;;;;;;;;;;;15.20;99.90;;;;;;5055654;28;19913;-76
2023/09/19 05:57:58;;;;;;;;;;;15.10;99.90;;;;;;5055463;28;19917;-77
2023/09/19 06:00:26;;;;;;;;;;;15.10;99.90;;;;;;5056607;28;20312;-77
2023/09/19 06:02:52;;;;;;;;;;;15.00;99.90;;;;;;5091748;28;19908;-78
2023/09/19 06:05:18;;;;;;;;;;;15.00;99.90;;;;;;5059445;28;19915;-76
2023/09/19 06:07:43;;;;;;;;;;;15.00;99.90;;;;;;5059233;28;19917;-77
2023/09/19 06:10:09;;;;;;;;;;;15.00;99.90;;;;;;5059587;28;19924;-77
2023/09/19 06:12:38;;;;;;;;;;;15.00;99.90;;;;;;5059594;28;19919;-76
2023/09/19 06:15:08;;;;;;;;;;;15.10;99.90;;;;;;5058912;28;20419;-77
2023/09/19 06:17:37;;;;;;;;;;;15.20;99.90;;;;;;5091448;28;19916;-77
2023/09/19 06:20:05;;;;;;;;;;;15.20;99.90;;;;;;5059138;28;20333;-77
2023/09/19 06:22:30;;;;;;;;;;;15.30;99.90;;;;;;5059177;28;20399;-77
2023/09/19 06:24:56;;;;;;;;;;;15.30;99.90;;;;;;5056950;28;20007;-77
2023/09/19 06:27:21;;;;;;;;;;;15.40;99.90;;;;;;5057983;28;20405;-77
2023/09/19 06:29:47;;;;;;;;;;;15.50;99.90;;;;;;5056216;28;19913;-77
2023/09/19 06:32:12;;;;;;;;;;;15.50;99.90;;;;;;5053558;28;20003;-77
2023/09/19 06:34:38;;;;;;;;;;;15.60;99.90;;;;;;5054979;28;19920;-77
2023/09/19 06:37:05;;;;;;;;;;;15.70;99.90;;;;;;5057001;28;19923;-77
2023/09/19 06:39:31;;;;;;;;;;;15.70;99.90;;;;;;5056604;28;19959;-78
2023/09/19 06:41:57;;;;;;;;;;;15.80;99.90;;;;;;5058874;28;19913;-77
2023/09/19 06:44:24;;;;;;;;;;;15.90;99.90;;;;;;5057411;28;20261;-76
2023/09/19 06:46:51;;;;;;;;;;;16.00;99.90;;;;;;5058721;28;19917;-77
2023/09/19 06:49:17;;;;;;;;;;;16.10;99.90;;;;;;5058747;28;20008;-77
2023/09/19 06:51:43;;;;;;;;;;;16.20;99.90;;;;;;5057949;28;19960;-77
2023/09/19 06:54:09;;;;;;;;;;;16.30;99.90;;;;;;5057266;28;20392;-77
2023/09/19 06:56:35;;;;;;;;;;;16.50;99.90;;;;;;5057231;28;19912;-77
2023/09/19 06:59:02;;;;;;;;;;;16.60;99.90;;;;;;5050997;28;19917;-76
2023/09/19 07:01:27;;;;;;;;;;;16.80;99.90;;;;;;5058720;28;19913;-77
2023/09/19 07:03:53;;;;;;;;;;;17.00;99.90;;;;;;5053153;28;20422;-78
2023/09/19 07:06:19;;;;;;;;;;;17.10;99.90;;;;;;5047977;28;20297;-78
2023/09/19 07:08:45;;;;;;;;;;;17.30;99.90;;;;;;5046709;28;19975;-76
2023/09/19 07:11:12;;;;;;;;;;;17.50;99.90;;;;;;5048236;28;19955;-76
2023/09/19 07:13:38;;;;;;;;;;;17.60;99.90;;;;;;5050846;28;19992;-77
2023/09/19 07:16:04;;;;;;;;;;;17.80;99.90;;;;;;5042883;28;19931;-77
2023/09/19 07:18:30;;;;;;;;;;;17.90;99.90;;;;;;5054616;28;19920;-77
2023/09/19 07:21:04;;;;;;;;;;;18.00;99.90;;;;;;5052568;28;19921;-77
2023/09/19 07:23:34;;;;;;;;;;;18.10;99.90;;;;;;5053744;28;20023;-76
2023/09/19 07:26:00;;;;;;;;;;;18.20;99.90;;;;;;5055606;28;19913;-77
2023/09/19 07:28:27;;;;;;;;;;;18.30;99.90;;;;;;5044178;28;19925;-79
2023/09/19 07:30:52;;;;;;;;;;;18.40;99.90;;;;;;5051334;28;19919;-78
2023/09/19 07:33:18;;;;;;;;;;;18.40;99.90;;;;;;5069805;28;20348;-77
2023/09/19 07:35:47;;;;;;;;;;;18.50;99.90;;;;;;5048624;28;19917;-77
2023/09/19 07:38:12;;;;;;;;;;;18.60;99.90;;;;;;5085896;28;19909;-77
2023/09/19 07:40:38;;;;;;;;;;;18.60;99.90;;;;;;5055495;28;19908;-78
2023/09/19 07:43:04;;;;;;;;;;;18.70;99.90;;;;;;5055697;28;19927;-77
2023/09/19 07:45:33;;;;;;;;;;;18.80;99.90;;;;;;5053005;28;19908;-78
2023/09/19 07:48:04;;;;;;;;;;;18.80;99.90;;;;;;5068745;28;19916;-78
2023/09/19 07:50:29;;;;;;;;;;;18.80;99.90;;;;;;5056564;28;20012;-77
2023/09/19 07:52:56;;;;;;;;;;;18.90;99.90;;;;;;5055181;28;19960;-76
2023/09/19 07:55:24;;;;;;;;;;;19.00;99.90;;;;;;5055075;28;20292;-78
2023/09/19 07:57:50;;;;;;;;;;;19.00;99.90;;;;;;5055860;28;19917;-77
2023/09/19 08:00:16;;;;;;;;;;;18.90;99.90;;;;;;5053090;28;20316;-78
2023/09/19 08:02:42;;;;;;;;;;;18.90;99.90;;;;;;5055465;28;19909;-79
2023/09/19 08:05:11;;;;;;;;;;;19.00;99.90;;;;;;5055989;28;19916;-77
2023/09/19 08:07:37;;;;;;;;;;;19.00;99.90;;;;;;5055780;28;20412;-77
2023/09/19 08:10:03;;;;;;;;;;;19.10;99.90;;;;;;5056305;28;19909;-78
2023/09/19 08:12:30;;;;;;;;;;;19.20;99.90;;;;;;5055004;28;20292;-76
2023/09/19 08:14:55;;;;;;;;;;;19.30;99.90;;;;;;5055973;28;19917;-77
2023/09/19 08:17:22;;;;;;;;;;;19.40;99.90;;;;;;5055472;28;19944;-78
2023/09/19 08:19:49;;;;;;;;;;;19.50;99.90;;;;;;5055744;28;19963;-77
2023/09/19 08:22:17;;;;;;;;;;;19.50;99.90;;;;;;5055433;28;20289;-78
2023/09/19 08:24:43;;;;;;;;;;;19.60;99.90;;;;;;5052556;28;20384;-77
2023/09/19 08:27:10;;;;;;;;;;;19.80;99.90;;;;;;5067018;28;19928;-77
2023/09/19 08:29:35;;;;;;;;;;;19.70;99.90;;;;;;5053996;28;20046;-77
2023/09/19 08:32:01;;;;;;;;;;;19.80;99.90;;;;;;5056084;28;19975;-77
2023/09/19 08:34:26;;;;;;;;;;;19.70;99.90;;;;;;5055226;28;19962;-77
2023/09/19 08:36:56;;;;;;;;;;;19.60;99.90;;;;;;5064847;28;19913;-77
2023/09/19 08:39:22;;;;;;;;;;;19.60;99.90;;;;;;5055897;28;19917;-76
2023/09/19 08:41:47;;;;;;;;;;;19.70;99.90;;;;;;5055448;28;19974;-77
2023/09/19 08:44:13;;;;;;;;;;;19.80;99.90;;;;;;5055417;28;20424;-77
2023/09/19 08:46:41;;;;;;;;;;;20.00;99.90;;;;;;5051029;28;20282;-78
2023/09/19 08:49:29;;;;;;;;;;;20.20;99.90;;;;;;5053080;28;19940;-77
2023/09/19 08:52:01;;;;;;;;;;;20.50;99.90;;;;;;5064522;28;19969;-80
2023/09/19 08:54:31;;;;;;;;;;;20.60;99.90;;;;;;5051806;28;20273;-78
2023/09/19 08:56:59;;;;;;;;;;;20.70;99.90;;;;;;5056133;28;19939;-78
2023/09/19 08:59:26;;;;;;;;;;;20.80;99.90;;;;;;5056616;28;19909;-78
2023/09/19 09:01:56;;;;;;;;;;;20.70;99.90;;;;;;5056368;28;19913;-78
2023/09/19 09:04:22;;;;;;;;;;;20.80;99.90;;;;;;5056161;28;20365;-79
2023/09/19 09:06:50;;;;;;;;;;;20.90;99.90;;;;;;5055904;28;20277;-80
2023/09/19 09:09:16;;;;;;;;;;;20.90;99.90;;;;;;5055998;28;19981;-78
2023/09/19 09:11:42;;;;;;;;;;;20.90;99.90;;;;;;5056300;28;19974;-78
2023/09/19 09:14:08;;;;;;;;;;;20.80;99.90;;;;;;5056101;28;19909;-77
2023/09/19 09:16:34;;;;;;;;;;;20.80;99.90;;;;;;5056079;28;19908;-76
2023/09/19 09:19:00;;;;;;;;;;;20.90;99.90;;;;;;5055913;28;19963;-77
2023/09/19 09:21:25;;;;;;;;;;;20.90;99.90;;;;;;5046056;28;20008;-77
2023/09/19 09:23:52;;;;;;;;;;;20.90;99.90;;;;;;5068141;28;19909;-78
2023/09/19 09:26:26;;;;;;;;;;;21.00;99.90;;;;;;5056661;28;19921;-77
2023/09/19 09:28:55;;;;;;;;;;;21.10;99.90;;;;;;5043139;28;19913;-77
2023/09/19 09:31:24;;;;;;;;;;;21.30;99.90;;;;;;5055741;28;19918;-78
2023/09/19 09:33:54;;;;;;;;;;;21.50;99.90;;;;;;5054285;28;19916;-77
2023/09/19 09:36:33;;;;;;;;;;;21.60;99.90;;;;;;5054945;28;20027;-78
2023/09/19 09:39:00;;;;;;;;;;;21.60;99.90;;;;;;5055626;28;20471;-78
2023/09/19 09:41:37;;;;;;;;;;;21.70;99.90;;;;;;5055787;28;19909;-76
2023/09/19 09:44:15;;;;;;;;;;;21.80;99.90;;;;;;5055378;28;19915;-77
2023/09/19 09:49:27;;;;;;;;;;;22.70;99.90;;;;;;5055926;28;19917;-78
2023/09/19 09:51:59;;;;;;;;;;;22.80;99.90;;;;;;5055349;28;19909;-78
2023/09/19 09:54:38;;;;;;;;;;;22.60;99.90;;;;;;5043743;28;19996;-78
2023/09/19 09:57:16;;;;;;;;;;;22.50;99.90;;;;;;5047319;28;19928;-77
2023/09/19 09:59:59;;;;;;;;;;;22.40;99.90;;;;;;5049492;28;19950;-78
2023/09/19 10:02:28;;;;;;;;;;;22.20;99.90;;;;;;5066420;28;19932;-78
2023/09/19 10:07:47;;;;;;;;;;;22.10;99.90;;;;;;5046315;28;19932;-79
2023/09/19 10:10:21;;;;;;;;;;;22.10;99.90;;;;;;5052360;28;19909;-77
2023/09/19 10:12:48;;;;;;;;;;;22.10;99.90;;;;;;5055398;28;19991;-80
2023/09/19 10:15:20;;;;;;;;;;;22.10;99.90;;;;;;5055503;28;19909;-78
2023/09/19 10:17:46;;;;;;;;;;;22.00;99.90;;;;;;5054091;28;19996;-79
2023/09/19 10:20:33;;;;;;;;;;;21.90;99.90;;;;;;5055458;28;19953;-78
2023/09/19 10:22:59;;;;;;;;;;;21.90;99.90;;;;;;5053926;28;19909;-78
2023/09/19 10:25:31;;;;;;;;;;;21.80;99.90;;;;;;5055268;28;19913;-78
2023/09/19 10:27:58;;;;;;;;;;;21.90;99.90;;;;;;5055224;28;20408;-78
2023/09/19 10:30:25;;;;;;;;;;;21.80;99.90;;;;;;5053862;28;19909;-76
2023/09/19 10:33:01;;;;;;;;;;;21.70;99.90;;;;;;5055246;28;19917;-77
2023/09/19 10:35:27;;;;;;;;;;;21.90;99.90;;;;;;5055042;28;19956;-79
2023/09/19 10:37:54;;;;;;;;;;;21.90;99.90;;;;;;5053923;28;19909;-77
2023/09/19 10:40:20;;;;;;;;;;;22.00;99.90;;;;;;5054997;28;19920;-78
2023/09/19 10:42:48;;;;;;;;;;;22.00;99.90;;;;;;5055213;28;19909;-77
2023/09/19 10:45:15;;;;;;;;;;;22.30;99.90;;;;;;5055222;28;19916;-77
2023/09/19 10:47:41;;;;;;;;;;;22.60;99.90;;;;;;5068636;28;20448;-77
2023/09/19 10:50:12;;;;;;;;;;;22.90;99.90;;;;;;5072896;28;19948;-78
2023/09/19 10:52:40;;;;;;;;;;;23.20;99.90;;;;;;5047259;28;19917;-77
2023/09/19 10:55:06;;;;;;;;;;;23.30;99.90;;;;;;5071555;28;19913;-77
2023/09/19 10:57:33;;;;;;;;;;;23.10;99.90;;;;;;5059079;28;19912;-77
2023/09/19 11:00:06;;;;;;;;;;;23.10;99.90;;;;;;5090753;28;19916;-77
2023/09/19 11:02:32;;;;;;;;;;;23.20;99.90;;;;;;5058603;28;19916;-77
2023/09/19 11:05:10;;;;;;;;;;;23.20;99.90;;;;;;5057062;28;19916;-77
2023/09/19 11:07:56;;;;;;;;;;;23.30;99.90;;;;;;5050012;28;20746;-77
2023/09/19 11:10:40;;;;;;;;;;;23.30;99.90;;;;;;5070783;28;19920;-77
2023/09/19 11:13:37;;;;;;;;;;;23.10;99.90;;;;;;5058527;28;20710;-79
2023/09/19 11:16:04;;;;;;;;;;;23.00;99.90;;;;;;5057887;28;19988;-77
2023/09/19 11:18:43;;;;;;;;;;;23.00;99.90;;;;;;5058690;28;19923;-76
2023/09/19 11:21:29;;;;;;;;;;;22.90;99.90;;;;;;5090232;28;19912;-78
2023/09/19 11:24:10;;;;;;;;;;;23.10;99.90;;;;;;5058439;28;19913;-77
2023/09/19 11:26:49;;;;;;;;;;;23.30;99.90;;;;;;5073614;28;19921;-80
2023/09/19 11:29:25;;;;;;;;;;;23.40;99.90;;;;;;5056740;28;19951;-77
2023/09/19 11:31:51;;;;;;;;;;;23.50;99.90;;;;;;5052978;28;20324;-77
2023/09/19 11:34:35;;;;;;;;;;;23.60;99.90;;;;;;5073797;28;20624;-78
2023/09/19 11:37:04;;;;;;;;;;;23.70;99.90;;;;;;5057845;28;19912;-79
2023/09/19 11:39:30;;;;;;;;;;;23.70;99.90;;;;;;5058209;28;19912;-76
2023/09/19 11:42:00;;;;;;;;;;;23.50;99.90;;;;;;5058145;28;20008;-80
2023/09/19 11:44:26;;;;;;;;;;;23.10;99.90;;;;;;5052821;28;19963;-78
2023/09/19 11:46:51;;;;;;;;;;;22.80;99.90;;;;;;5085672;28;19909;-79
2023/09/19 11:49:23;;;;;;;;;;;22.80;99.90;;;;;;5057972;28;19951;-78
2023/09/19 11:51:51;;;;;;;;;;;22.80;99.90;;;;;;5056148;28;19917;-77
2023/09/19 11:54:21;;;;;;;;;;;22.80;99.90;;;;;;5057800;28;20399;-77
2023/09/19 11:56:51;;;;;;;;;;;23.00;99.90;;;;;;5057239;28;20312;-78
2023/09/19 11:59:30;;;;;;;;;;;23.30;99.90;;;;;;5056512;28;19916;-78
2023/09/19 12:01:59;;;;;;;;;;;23.60;99.90;;;;;;5053009;28;19916;-78
2023/09/19 12:04:45;;;;;;;;;;;23.80;99.90;;;;;;5057680;28;19919;-79
2023/09/19 12:07:18;;;;;;;;;;;24.00;99.90;;;;;;5056150;28;19913;-77
2023/09/19 12:09:47;;;;;;;;;;;24.10;99.90;;;;;;5057811;28;19917;-78
2023/09/19 12:12:21;;;;;;;;;;;24.00;99.90;;;;;;5056158;28;20368;-77
2023/09/19 12:14:48;;;;;;;;;;;24.10;99.90;;;;;;5056157;28;19996;-75
2023/09/19 12:17:13;;;;;;;;;;;24.10;99.90;;;;;;5056188;28;19913;-78
2023/09/19 12:19:49;;;;;;;;;;;23.90;99.90;;;;;;5089018;28;19958;-79
2023/09/19 12:22:15;;;;;;;;;;;24.00;99.90;;;;;;5049788;28;19913;-78
2023/09/19 12:24:44;;;;;;;;;;;24.00;99.90;;;;;;5055920;28;19913;-77
2023/09/19 12:27:11;;;;;;;;;;;24.00;99.90;;;;;;5058748;28;19944;-78
2023/09/19 12:29:51;;;;;;;;;;;24.10;99.90;;;;;;5058994;28;19936;-77
2023/09/19 12:32:19;;;;;;;;;;;24.30;99.90;;;;;;5052956;28;19936;-78
2023/09/19 12:34:52;;;;;;;;;;;24.50;99.90;;;;;;5053937;28;20296;-77
2023/09/19 12:37:21;;;;;;;;;;;24.50;99.90;;;;;;5055696;28;19909;-78
2023/09/19 12:39:51;;;;;;;;;;;24.50;99.90;;;;;;5054585;28;19958;-79
2023/09/19 12:42:21;;;;;;;;;;;24.50;99.90;;;;;;5053723;28;19913;-77
2023/09/19 12:44:48;;;;;;;;;;;24.60;99.90;;;;;;5055375;28;19964;-77
2023/09/19 12:47:15;;;;;;;;;;;24.50;99.90;;;;;;5054366;28;20764;-77
2023/09/19 12:50:00;;;;;;;;;;;24.40;99.90;;;;;;5054730;28;19917;-78
2023/09/19 12:52:26;;;;;;;;;;;24.40;99.90;;;;;;5049542;28;19994;-78
2023/09/19 12:54:51;;;;;;;;;;;24.50;99.90;;;;;;5044113;28;19917;-77
2023/09/19 12:57:25;;;;;;;;;;;24.60;99.90;;;;;;5060335;28;19910;-80
2023/09/19 12:59:52;;;;;;;;;;;24.60;99.90;;;;;;5047785;28;19917;-77
2023/09/19 13:02:23;;;;;;;;;;;24.60;99.90;;;;;;5050181;28;19913;-78
2023/09/19 13:05:04;;;;;;;;;;;24.70;99.90;;;;;;5044685;28;20313;-78
2023/09/19 13:07:43;;;;;;;;;;;24.70;99.90;;;;;;5052490;28;19909;-77
2023/09/19 13:10:10;;;;;;;;;;;24.60;99.90;;;;;;5053226;28;19919;-78
2023/09/19 13:12:37;;;;;;;;;;;24.60;99.90;;;;;;5054520;28;20292;-77
2023/09/19 13:15:13;;;;;;;;;;;24.60;99.90;;;;;;5054724;28;19991;-78
2023/09/19 13:17:45;;;;;;;;;;;24.70;99.90;;;;;;5056065;28;19916;-79
2023/09/19 13:20:32;;;;;;;;;;;24.80;99.90;;;;;;5055752;28;19919;-78
2023/09/19 13:23:08;;;;;;;;;;;24.80;99.90;;;;;;5055907;28;19960;-80
2023/09/19 13:25:34;;;;;;;;;;;25.00;99.90;;;;;;5056153;28;19920;-78
2023/09/19 13:28:04;;;;;;;;;;;25.00;99.90;;;;;;5087572;28;19925;-79
2023/09/19 13:30:31;;;;;;;;;;;25.00;99.90;;;;;;5087024;28;20314;-78
2023/09/19 13:33:07;;;;;;;;;;;25.20;99.90;;;;;;5071342;28;19924;-78
2023/09/19 13:35:33;;;;;;;;;;;25.10;99.90;;;;;;5054131;28;19913;-80
2023/09/19 13:37:59;;;;;;;;;;;25.00;99.90;;;;;;5054432;28;19992;-78
2023/09/19 13:40:34;;;;;;;;;;;25.10;99.90;;;;;;5055660;28;19913;-79
2023/09/19 13:43:00;;;;;;;;;;;25.10;99.90;;;;;;5070230;28;19964;-78
2023/09/19 13:45:26;;;;;;;;;;;24.90;99.90;;;;;;5055545;28;19924;-79
2023/09/19 13:47:53;;;;;;;;;;;24.90;99.90;;;;;;5055845;28;19913;-79
2023/09/19 13:50:23;;;;;;;;;;;25.00;99.90;;;;;;5055611;28;19952;-78
2023/09/19 13:52:51;;;;;;;;;;;25.10;99.90;;;;;;5054948;28;19909;-78
2023/09/19 13:55:20;;;;;;;;;;;25.00;99.90;;;;;;5056650;28;19916;-77
2023/09/19 13:57:54;;;;;;;;;;;25.00;99.90;;;;;;5055630;28;19909;-73
2023/09/19 14:00:20;;;;;;;;;;;25.10;99.90;;;;;;5055103;28;19984;-73
2023/09/19 14:02:46;;;;;;;;;;;25.10;99.90;;;;;;5048268;28;19960;-74
2023/09/19 14:05:14;;;;;;;;;;;25.30;99.90;;;;;;5047629;28;20408;-73
2023/09/19 14:07:41;;;;;;;;;;;25.40;99.90;;;;;;5051373;28;20200;-74
2023/09/19 14:10:10;;;;;;;;;;;25.40;99.90;;;;;;5054156;28;19999;-73
2023/09/19 14:12:36;;;;;;;;;;;25.40;99.90;;;;;;5053397;28;19936;-73
2023/09/19 14:15:02;;;;;;;;;;;25.50;99.90;;;;;;5054122;28;19909;-74
2023/09/19 14:17:28;;;;;;;;;;;25.60;99.90;;;;;;5054422;28;19909;-74
2023/09/19 14:19:53;;;;;;;;;;;25.70;99.90;;;;;;5054298;28;19920;-73
2023/09/19 14:22:19;;;;;;;;;;;25.80;99.90;;;;;;5056375;28;19920;-73
2023/09/19 14:24:45;;;;;;;;;;;25.80;99.90;;;;;;5057488;28;19940;-73
2023/09/19 14:27:10;;;;;;;;;;;25.90;99.90;;;;;;5058349;28;19920;-73
2023/09/19 14:29:36;;;;;;;;;;;25.90;99.90;;;;;;5056883;28;19923;-73